Time;durP1;ratioP1;P1;durP2;ratioP2;P2;SDS_P1;SDS_P2;PMS_P1;PMS_P2;Temp;Humidity;BMP_temperature;BMP_pressure;BME280_temperature;BME280_humidity;BME280_pressure;Samples;Min_cycle;Max_cycle;Signal;HPM_P1;HPM_P2
2021/07/24 00:00:09;;;;;;;;;15.75;14.00;;;;;26.79;41.14;100167.53;5078146;28;45344;-46
2021/07/24 00:02:35;;;;;;;;;19.75;16.50;;;;;26.78;41.08;100158.69;5078590;28;45405;-46
2021/07/24 00:05:00;;;;;;;;;20.25;18.25;;;;;26.78;40.70;100164.00;5078380;28;45614;-47
2021/07/24 00:07:25;;;;;;;;;17.50;15.25;;;;;26.78;41.33;100171.97;5077993;28;45424;-43
2021/07/24 00:09:51;;;;;;;;;19.75;18.00;;;;;26.79;40.78;100178.97;5077820;27;45446;-44
2021/07/24 00:12:16;;;;;;;;;16.25;16.25;;;;;26.80;41.31;100175.34;5059837;28;45513;-46
2021/07/24 00:14:41;;;;;;;;;18.25;17.00;;;;;26.80;41.17;100180.66;5078318;28;45385;-45
2021/07/24 00:17:07;;;;;;;;;16.00;16.00;;;;;26.80;41.17;100183.31;5077878;28;45398;-45
2021/07/24 00:19:32;;;;;;;;;20.00;18.75;;;;;26.80;41.17;100175.34;5078082;27;45311;-45
2021/07/24 00:21:58;;;;;;;;;20.25;17.50;;;;;26.80;41.18;100146.09;5077915;28;45531;-47
2021/07/24 00:24:23;;;;;;;;;17.00;15.25;;;;;26.76;40.79;100142.00;5077892;27;45624;-50
2021/07/24 00:26:48;;;;;;;;;20.75;18.25;;;;;26.78;41.22;100163.19;5077491;28;46165;-44
2021/07/24 00:29:14;;;;;;;;;18.50;16.50;;;;;26.79;41.28;100163.03;5077955;28;45432;-45
2021/07/24 00:31:41;;;;;;;;;18.75;16.00;;;;;26.78;41.45;100156.03;5076373;28;45213;-46
2021/07/24 00:34:07;;;;;;;;;16.75;16.25;;;;;26.78;41.19;100155.22;5078402;28;45513;-46
2021/07/24 00:36:32;;;;;;;;;16.25;15.00;;;;;26.79;41.40;100162.19;5077600;28;46157;-44
2021/07/24 00:38:57;;;;;;;;;17.75;15.50;;;;;26.78;41.18;100171.97;5077434;28;45253;-45
2021/07/24 00:41:25;;;;;;;;;21.00;18.75;;;;;26.77;41.00;100162.28;5077543;28;45352;-49
2021/07/24 00:43:52;;;;;;;;;18.50;18.50;;;;;26.77;41.06;100156.97;5077736;28;45586;-46
2021/07/24 00:46:21;;;;;;;;;20.75;16.50;;;;;26.76;41.41;100155.28;5077448;28;45380;-46
2021/07/24 00:48:47;;;;;;;;;19.25;16.25;;;;;26.77;41.28;100170.28;5077480;28;45332;-45
2021/07/24 00:51:17;;;;;;;;;15.75;14.25;;;;;26.77;41.19;100172.09;5077468;28;45301;-47
2021/07/24 00:53:43;;;;;;;;;21.00;18.25;;;;;26.77;41.04;100177.41;5077548;28;45537;-48
2021/07/24 00:56:08;;;;;;;;;19.75;17.75;;;;;26.75;41.71;100169.56;5077348;27;53432;-47
2021/07/24 00:58:38;;;;;;;;;18.50;16.50;;;;;26.76;41.53;100173.91;5077229;28;45491;-47
2021/07/24 01:01:05;;;;;;;;;17.00;16.00;;;;;26.76;41.42;100178.41;5059363;28;45284;-45
2021/07/24 01:03:31;;;;;;;;;18.00;16.50;;;;;26.74;41.35;100181.19;5077425;28;45335;-46
2021/07/24 01:05:58;;;;;;;;;16.75;15.00;;;;;26.75;41.67;100169.56;5077041;28;45486;-48
2021/07/24 01:08:25;;;;;;;;;22.00;16.00;;;;;26.75;41.82;100164.25;5077213;28;45804;-47
2021/07/24 01:10:52;;;;;;;;;21.00;16.25;;;;;26.76;41.38;100151.81;5077196;28;45280;-48
2021/07/24 01:13:18;;;;;;;;;21.75;17.50;;;;;26.75;41.33;100152.78;5077018;28;45178;-49
2021/07/24 01:15:49;;;;;;;;;17.75;16.75;;;;;26.74;41.53;100151.13;5076945;28;46106;-46
2021/07/24 01:18:15;;;;;;;;;22.00;19.00;;;;;26.74;41.84;100151.13;5076816;28;45274;-47
2021/07/24 01:20:42;;;;;;;;;18.50;15.00;;;;;26.73;41.71;100150.28;5076934;28;45354;-46
2021/07/24 01:23:09;;;;;;;;;19.50;16.75;;;;;26.73;41.77;100139.66;5077534;28;45446;-47
2021/07/24 01:25:45;;;;;;;;;20.00;17.50;;;;;26.73;42.11;100149.44;5076863;28;45647;-46
2021/07/24 01:28:10;;;;;;;;;18.50;17.50;;;;;26.73;41.74;100176.88;5077036;27;45367;-44
2021/07/24 01:30:35;;;;;;;;;19.75;16.75;;;;;26.73;41.88;100171.56;5076865;28;45338;-48
2021/07/24 01:33:01;;;;;;;;;20.50;17.25;;;;;26.73;42.29;100178.66;5077105;28;45723;-47
2021/07/24 01:35:26;;;;;;;;;16.00;14.50;;;;;26.73;42.27;100191.97;5076714;28;46025;-49
2021/07/24 01:37:51;;;;;;;;;20.00;17.25;;;;;26.73;42.28;100198.13;5076642;28;45276;-47
2021/07/24 01:40:17;;;;;;;;;18.00;16.00;;;;;26.72;42.34;100185.81;5076389;28;51143;-45
2021/07/24 01:42:42;;;;;;;;;17.75;15.00;;;;;26.73;43.20;100195.47;5076940;28;45366;-47
2021/07/24 01:45:08;;;;;;;;;18.00;15.00;;;;;26.72;42.97;100193.78;5076728;28;47062;-51
2021/07/24 01:47:35;;;;;;;;;18.50;16.50;;;;;26.72;43.00;100191.13;5076511;28;45378;-47
2021/07/24 01:52:48;;;;;;;;;15.00;13.50;;;;;26.71;43.57;100194.78;5075991;28;45414;-45
2021/07/24 01:55:22;;;;;;;;;17.00;14.75;;;;;26.72;43.95;100196.47;5076454;28;46193;-50
2021/07/24 01:57:51;;;;;;;;;16.25;15.00;;;;;26.72;44.27;100185.81;5076534;28;45236;-47
2021/07/24 02:00:17;;;;;;;;;14.75;14.50;;;;;26.71;44.01;100176.16;5076606;28;45380;-45
2021/07/24 02:02:46;;;;;;;;;16.50;16.00;;;;;26.71;44.68;100184.16;5076754;28;45450;-46
2021/07/24 02:05:26;;;;;;;;;14.75;14.75;;;;;26.72;45.01;100200.91;5076662;27;46631;-47
2021/07/24 02:07:53;;;;;;;;;14.25;12.50;;;;;26.72;44.97;100191.13;5076105;28;45847;-44
2021/07/24 02:10:18;;;;;;;;;12.50;11.75;;;;;26.71;44.53;100197.44;5076357;28;45388;-45
2021/07/24 02:12:44;;;;;;;;;17.50;16.25;;;;;26.72;44.73;100201.78;5076409;28;45624;-47
2021/07/24 02:15:10;;;;;;;;;12.50;12.50;;;;;26.72;44.61;100203.56;5076426;28;46213;-46
2021/07/24 02:17:37;;;;;;;;;13.50;12.50;;;;;26.72;44.88;100193.78;5076213;28;45636;-45
2021/07/24 02:20:04;;;;;;;;;11.00;11.00;;;;;26.73;44.89;100203.44;5076316;28;45492;-46
2021/07/24 02:22:30;;;;;;;;;13.00;10.50;;;;;26.73;45.21;100210.56;5076429;27;45640;-46
2021/07/24 02:24:55;;;;;;;;;9.50;8.50;;;;;26.71;45.05;100205.41;5076012;28;45584;-47
2021/07/24 02:27:20;;;;;;;;;12.00;11.50;;;;;26.72;44.81;100215.06;5075864;28;45520;-44
2021/07/24 02:29:46;;;;;;;;;11.00;10.50;;;;;26.73;45.01;100214.09;5058051;28;45309;-46
2021/07/24 02:32:11;;;;;;;;;9.50;8.50;;;;;26.72;45.46;100220.38;5076529;28;45497;-47
2021/07/24 02:34:36;;;;;;;;;12.75;10.00;;;;;26.71;45.34;100218.69;5075803;28;46892;-46
2021/07/24 02:37:02;;;;;;;;;9.75;9.25;;;;;26.70;45.15;100219.69;5075838;28;45358;-45
2021/07/24 02:39:27;;;;;;;;;12.50;9.75;;;;;26.70;44.96;100220.50;5075949;28;45372;-49
2021/07/24 02:41:53;;;;;;;;;11.00;10.00;;;;;26.70;45.72;100217.03;5076098;28;45265;-46
2021/07/24 02:44:18;;;;;;;;;10.50;7.00;;;;;26.70;44.95;100225.00;5075801;28;45370;-46
2021/07/24 02:46:43;;;;;;;;;6.75;6.75;;;;;26.70;45.40;100217.03;5076111;28;45343;-44
2021/07/24 02:49:09;;;;;;;;;11.25;10.25;;;;;26.68;45.52;100230.44;5076002;28;45364;-46
2021/07/24 02:51:35;;;;;;;;;9.25;8.25;;;;;26.68;45.63;100216.31;5057813;28;46071;-47
2021/07/24 02:54:00;;;;;;;;;8.50;7.75;;;;;26.67;45.33;100210.16;5075659;28;46041;-43
2021/07/24 02:56:26;;;;;;;;;9.50;6.75;;;;;26.67;45.35;100204.00;5075690;28;45240;-45
2021/07/24 02:58:51;;;;;;;;;7.50;7.50;;;;;26.67;45.25;100196.03;5075863;28;45403;-43
2021/07/24 03:01:16;;;;;;;;;7.00;7.00;;;;;26.68;45.21;100205.69;5075953;28;45285;-48
2021/07/24 03:03:42;;;;;;;;;6.25;6.25;;;;;26.67;45.38;100198.69;5075900;27;45900;-44
2021/07/24 03:06:07;;;;;;;;;9.00;8.00;;;;;26.67;44.99;100211.97;5060895;28;45295;-46
2021/07/24 03:08:32;;;;;;;;;6.00;6.00;;;;;26.67;45.11;100217.28;5079261;28;45209;-45
2021/07/24 03:10:58;;;;;;;;;6.75;6.75;;;;;26.65;45.07;100216.59;5079275;27;45238;-46
2021/07/24 03:13:24;;;;;;;;;7.75;7.00;;;;;26.67;45.44;100222.59;5079061;28;46299;-45
2021/07/24 03:15:49;;;;;;;;;5.50;5.50;;;;;26.66;45.24;100239.53;5079030;28;45336;-46
2021/07/24 03:18:14;;;;;;;;;7.75;7.75;;;;;26.65;45.16;100238.72;5079363;27;45406;-45
2021/07/24 03:20:39;;;;;;;;;5.75;5.75;;;;;26.64;45.00;100247.66;5079182;28;45538;-46
2021/07/24 03:23:05;;;;;;;;;7.75;7.00;;;;;26.64;45.11;100247.66;5078523;28;55094;-47
2021/07/24 03:25:30;;;;;;;;;7.50;6.50;;;;;26.63;44.56;100250.44;5078877;27;45340;-45
2021/07/24 03:27:56;;;;;;;;;7.25;6.25;;;;;26.60;45.11;100253.38;5078628;28;45357;-47
2021/07/24 03:30:21;;;;;;;;;7.50;5.25;;;;;26.60;44.59;100261.38;5078934;28;45508;-48
2021/07/24 03:32:46;;;;;;;;;7.25;5.75;;;;;26.59;45.15;100251.72;5078486;28;58825;-48
2021/07/24 03:35:12;;;;;;;;;8.25;7.25;;;;;26.59;45.11;100251.72;5078622;28;46661;-47
2021/07/24 03:37:37;;;;;;;;;6.00;6.00;;;;;26.58;44.98;100263.31;5078950;28;45399;-46
2021/07/24 03:40:04;;;;;;;;;8.00;8.00;;;;;26.57;44.78;100272.25;5078673;27;45557;-48
2021/07/24 03:42:29;;;;;;;;;6.25;6.25;;;;;26.58;44.68;100276.59;5078480;28;45375;-46
2021/07/24 03:44:54;;;;;;;;;3.00;1.00;;;;;26.55;45.04;100286.53;5078485;27;45229;-49
2021/07/24 03:47:20;;;;;;;;;7.75;5.75;;;;;26.54;45.05;100297.31;5078604;28;45320;-50
2021/07/24 03:49:45;;;;;;;;;5.75;5.75;;;;;26.52;44.75;100304.56;5079112;28;45213;-46
2021/07/24 03:52:10;;;;;;;;;7.00;5.00;;;;;26.52;44.64;100325.84;5078229;28;46073;-47
2021/07/24 03:54:35;;;;;;;;;8.50;5.75;;;;;26.51;44.51;100330.28;5078248;28;45328;-47
2021/07/24 03:57:01;;;;;;;;;7.25;7.00;;;;;26.49;44.47;100329.59;5060146;27;45520;-47
2021/07/24 03:59:26;;;;;;;;;6.75;5.75;;;;;26.48;45.15;100335.91;5078788;28;45433;-48
2021/07/24 04:01:54;;;;;;;;;5.00;5.00;;;;;26.46;44.49;100337.84;5060094;28;46475;-47
2021/07/24 04:04:20;;;;;;;;;4.00;4.00;;;;;26.46;44.45;100334.38;5078341;28;45425;-46
2021/07/24 04:06:46;;;;;;;;;6.50;6.00;;;;;26.45;44.75;100336.16;5078628;27;45392;-47
2021/07/24 04:09:11;;;;;;;;;6.00;6.00;;;;;26.43;44.38;100335.44;5078347;28;45277;-48
2021/07/24 04:11:37;;;;;;;;;5.75;5.75;;;;;26.42;44.75;100349.72;5077927;28;47175;-48
2021/07/24 04:14:06;;;;;;;;;7.50;7.00;;;;;26.42;44.88;100370.16;5077973;28;45380;-47
2021/07/24 04:16:33;;;;;;;;;6.00;5.50;;;;;26.40;45.12;100370.28;5077538;28;45234;-44
2021/07/24 04:19:00;;;;;;;;;7.00;6.25;;;;;26.37;44.66;100352.78;5078220;28;45566;-49
2021/07/24 04:21:26;;;;;;;;;5.75;5.75;;;;;26.37;44.98;100357.25;5077760;28;46028;-48
2021/07/24 04:23:51;;;;;;;;;6.50;6.00;;;;;26.36;45.13;100358.25;5077730;28;45465;-47
2021/07/24 04:26:16;;;;;;;;;7.25;6.00;;;;;26.34;44.78;100362.84;5078003;28;45245;-46
2021/07/24 04:28:42;;;;;;;;;7.75;6.75;;;;;26.32;45.19;100351.50;5077964;27;45451;-46
2021/07/24 04:31:14;;;;;;;;;8.00;6.50;;;;;26.31;44.90;100348.03;5077552;27;45489;-47
2021/07/24 04:33:40;;;;;;;;;7.50;5.00;;;;;26.31;45.00;100357.78;5077499;27;45637;-46
2021/07/24 04:36:06;;;;;;;;;6.50;6.50;;;;;26.31;45.44;100352.47;5077869;28;45417;-47
2021/07/24 04:38:31;;;;;;;;;6.00;5.75;;;;;26.31;44.72;100357.78;5077908;27;45391;-44
2021/07/24 04:40:56;;;;;;;;;9.00;5.50;;;;;26.30;44.72;100358.75;5077434;28;46141;-47
2021/07/24 04:43:22;;;;;;;;;9.00;7.00;;;;;26.30;45.00;100361.41;5077492;28;45437;-45
2021/07/24 04:45:47;;;;;;;;;10.75;7.50;;;;;26.28;45.11;100363.41;5077839;28;45394;-51
2021/07/24 04:48:12;;;;;;;;;7.75;6.25;;;;;26.28;44.98;100371.38;5077784;28;45585;-45
2021/07/24 04:50:50;;;;;;;;;8.50;6.00;;;;;26.27;44.99;100377.66;5077262;27;46121;-48
2021/07/24 04:53:17;;;;;;;;;6.00;6.00;;;;;26.25;45.38;100369.78;5077417;28;45692;-43
2021/07/24 04:55:43;;;;;;;;;7.25;6.00;;;;;26.24;44.70;100374.28;5077476;27;45382;-47
2021/07/24 04:58:09;;;;;;;;;8.00;5.00;;;;;26.22;45.10;100381.53;5077530;27;45248;-48
2021/07/24 05:00:39;;;;;;;;;6.25;6.25;;;;;26.21;45.24;100387.00;5077283;28;45462;-47
2021/07/24 05:03:05;;;;;;;;;6.25;5.25;;;;;26.18;45.07;100384.59;5077207;28;45743;-46
2021/07/24 05:05:30;;;;;;;;;6.00;6.00;;;;;26.17;44.79;100386.41;5077241;28;45355;-48
2021/07/24 05:07:56;;;;;;;;;9.00;6.25;;;;;26.15;45.41;100395.47;5077397;28;45345;-45
2021/07/24 05:10:21;;;;;;;;;8.00;6.25;;;;;26.11;45.20;100389.59;5077306;28;45395;-46
2021/07/24 05:12:47;;;;;;;;;6.75;6.25;;;;;26.11;45.72;100394.91;5077439;28;45776;-45
2021/07/24 05:15:12;;;;;;;;;9.00;7.50;;;;;26.11;45.53;100402.88;5077271;28;45240;-47
2021/07/24 05:17:40;;;;;;;;;5.25;5.25;;;;;26.09;45.04;100402.13;5077251;28;45533;-46
2021/07/24 05:20:06;;;;;;;;;8.00;7.00;;;;;26.07;45.06;100404.09;5076889;28;46143;-47
2021/07/24 05:22:31;;;;;;;;;7.25;7.00;;;;;26.05;45.80;100403.38;5076979;28;45372;-46
2021/07/24 05:24:56;;;;;;;;;10.00;6.75;;;;;26.02;45.39;100399.16;5076839;28;45657;-46
2021/07/24 05:27:21;;;;;;;;;6.25;6.25;;;;;26.01;45.20;100408.13;5076340;27;45581;-45
2021/07/24 05:29:47;;;;;;;;;8.00;8.00;;;;;25.99;46.02;100412.72;5077193;28;45307;-44
2021/07/24 05:32:13;;;;;;;;;8.75;7.00;;;;;25.92;46.19;100407.09;5076573;28;45532;-47
2021/07/24 05:34:38;;;;;;;;;7.00;7.00;;;;;25.84;45.81;100398.94;5076407;28;45335;-47
2021/07/24 05:37:04;;;;;;;;;10.50;9.25;;;;;25.80;46.15;100408.13;5076911;28;45501;-49
2021/07/24 05:39:29;;;;;;;;;8.00;7.00;;;;;25.72;46.45;100414.06;5076656;28;45453;-47
2021/07/24 05:41:55;;;;;;;;;7.00;6.25;;;;;25.61;46.54;100404.38;5076617;28;45398;-49
2021/07/24 05:44:20;;;;;;;;;7.00;7.00;;;;;25.54;46.71;100403.19;5077154;28;45351;-47
2021/07/24 05:46:46;;;;;;;;;7.00;5.75;;;;;25.52;46.28;100397.16;5077024;28;45265;-46
2021/07/24 05:49:11;;;;;;;;;11.75;8.00;;;;;25.49;46.78;100404.56;5076410;28;46011;-48
2021/07/24 05:51:39;;;;;;;;;8.00;7.50;;;;;25.44;46.79;100408.44;5076430;28;45412;-49
2021/07/24 05:54:04;;;;;;;;;8.50;7.25;;;;;25.40;47.29;100403.50;5076643;28;45292;-46
2021/07/24 05:56:29;;;;;;;;;11.00;9.00;;;;;25.33;46.99;100408.47;5076771;27;45799;-45
2021/07/24 05:58:55;;;;;;;;;7.00;6.00;;;;;25.27;46.73;100401.84;5076084;28;56488;-43
2021/07/24 06:01:21;;;;;;;;;6.50;6.50;;;;;25.26;46.94;100409.91;5076709;28;45322;-46
2021/07/24 06:03:47;;;;;;;;;8.50;6.50;;;;;25.30;47.00;100406.88;5076551;28;45312;-46
2021/07/24 06:06:12;;;;;;;;;9.25;7.00;;;;;25.32;46.87;100399.66;5076707;27;45319;-46
2021/07/24 06:08:37;;;;;;;;;7.25;7.25;;;;;25.34;47.20;100390.72;5076324;28;46015;-47
2021/07/24 06:11:04;;;;;;;;;8.25;7.75;;;;;25.35;47.31;100395.06;5057955;28;49954;-46
2021/07/24 06:13:31;;;;;;;;;7.25;6.00;;;;;25.38;47.25;100403.59;5076539;28;45444;-49
2021/07/24 06:16:00;;;;;;;;;6.00;6.00;;;;;25.39;46.54;100386.72;5076695;28;45371;-46
2021/07/24 06:18:25;;;;;;;;;8.00;6.50;;;;;25.41;46.99;100391.94;5076201;28;45446;-46
2021/07/24 06:20:51;;;;;;;;;8.75;7.25;;;;;25.42;46.58;100388.28;5076707;28;45439;-45
2021/07/24 06:23:18;;;;;;;;;8.00;8.00;;;;;25.42;46.66;100393.59;5076399;28;45414;-46
2021/07/24 06:25:44;;;;;;;;;7.75;7.25;;;;;25.42;46.23;100399.78;5076413;28;45328;-44
2021/07/24 06:28:10;;;;;;;;;7.00;7.00;;;;;25.36;46.25;100389.63;5075841;28;46400;-46
2021/07/24 06:30:36;;;;;;;;;9.50;8.50;;;;;25.28;46.72;100387.63;5075994;28;45389;-44
2021/07/24 06:33:01;;;;;;;;;7.00;7.00;;;;;25.28;46.95;100398.25;5075696;27;45359;-48
2021/07/24 06:35:26;;;;;;;;;9.00;7.75;;;;;25.28;46.40;100392.94;5076377;28;45330;-50
2021/07/24 06:37:52;;;;;;;;;5.50;5.50;;;;;25.29;46.43;100393.75;5076615;27;45298;-48
2021/07/24 06:40:18;;;;;;;;;6.75;5.75;;;;;25.27;47.06;100395.69;5079498;28;45413;-44
2021/07/24 06:42:43;;;;;;;;;8.25;6.00;;;;;25.25;46.20;100387.00;5079715;28;45272;-46
2021/07/24 06:45:09;;;;;;;;;7.75;6.00;;;;;25.24;46.14;100391.50;5079713;28;45612;-44
2021/07/24 06:47:34;;;;;;;;;6.75;5.00;;;;;25.21;46.62;100388.25;5079226;27;46141;-45
2021/07/24 06:49:59;;;;;;;;;8.25;5.50;;;;;25.19;46.66;100383.06;5079246;27;45338;-45
2021/07/24 06:52:25;;;;;;;;;9.00;7.25;;;;;25.21;46.04;100386.44;5079760;28;45355;-46
2021/07/24 06:54:50;;;;;;;;;5.00;5.00;;;;;25.19;46.60;100387.53;5079636;28;45449;-46
2021/07/24 06:57:15;;;;;;;;;12.00;6.00;;;;;25.19;46.15;100392.84;5079122;27;45380;-45
2021/07/24 06:59:41;;;;;;;;;5.00;5.00;;;;;25.19;46.49;100398.16;5079247;28;45328;-47
2021/07/24 07:02:06;;;;;;;;;5.75;5.75;;;;;25.22;46.40;100393.41;5079232;27;45405;-47
2021/07/24 07:04:32;;;;;;;;;4.50;4.50;;;;;25.23;46.07;100397.75;5078227;28;45401;-47
2021/07/24 07:06:58;;;;;;;;;5.25;5.25;;;;;25.23;45.96;100389.81;5079097;27;45384;-47
2021/07/24 07:09:23;;;;;;;;;7.00;5.50;;;;;25.24;46.26;100386.19;5079263;28;45335;-44
2021/07/24 07:11:48;;;;;;;;;8.00;5.00;;;;;25.24;46.04;100386.19;5079098;28;45295;-47
2021/07/24 07:14:14;;;;;;;;;6.00;5.50;;;;;25.26;45.94;100394.88;5079211;28;45656;-45
2021/07/24 07:16:39;;;;;;;;;7.25;5.75;;;;;25.27;45.53;100391.25;5078978;28;45308;-45
2021/07/24 07:19:06;;;;;;;;;7.25;6.25;;;;;25.29;46.15;100399.06;5078858;27;45248;-43
2021/07/24 07:21:32;;;;;;;;;6.00;4.25;;;;;25.30;46.30;100392.78;5078971;28;45174;-45
2021/07/24 07:23:57;;;;;;;;;9.00;6.75;;;;;25.31;45.51;100384.69;5079357;28;45556;-46
2021/07/24 07:26:28;;;;;;;;;3.75;3.50;;;;;25.31;45.53;100395.31;5078387;28;54492;-45
2021/07/24 07:28:55;;;;;;;;;5.25;5.25;;;;;25.28;45.43;100387.63;5079142;28;45552;-49
2021/07/24 07:31:20;;;;;;;;;5.25;5.25;;;;;25.30;45.31;100398.94;5078799;28;45713;-46
2021/07/24 07:33:46;;;;;;;;;9.00;6.50;;;;;25.32;45.87;100410.25;5078907;27;45525;-49
2021/07/24 07:36:11;;;;;;;;;5.50;4.75;;;;;25.34;45.62;100401.34;5078563;28;45166;-45
2021/07/24 07:38:36;;;;;;;;;6.75;5.75;;;;;25.36;45.42;100408.19;5078287;27;50528;-48
2021/07/24 07:41:02;;;;;;;;;5.00;5.00;;;;;25.38;45.44;100413.38;5078643;27;45221;-45
2021/07/24 07:43:27;;;;;;;;;4.50;4.50;;;;;25.37;45.19;100417.00;5079158;28;45537;-46
2021/07/24 07:45:52;;;;;;;;;7.25;6.25;;;;;25.36;45.19;100413.50;5078221;28;46169;-45
2021/07/24 07:48:18;;;;;;;;;3.75;3.75;;;;;25.38;45.59;100414.22;5078519;28;45330;-45
2021/07/24 07:50:43;;;;;;;;;5.00;5.00;;;;;25.42;45.71;100420.13;5077431;27;45193;-47
2021/07/24 07:53:09;;;;;;;;;4.75;4.75;;;;;25.42;45.55;100409.53;5078679;28;45722;-48
2021/07/24 07:55:36;;;;;;;;;4.50;4.50;;;;;25.41;44.89;100399.91;5078380;27;45475;-47
2021/07/24 07:58:08;;;;;;;;;3.75;3.75;;;;;25.40;45.62;100404.34;5078326;28;45390;-45
2021/07/24 08:00:34;;;;;;;;;6.75;5.75;;;;;25.42;45.60;100401.56;5078550;27;45348;-49
2021/07/24 08:03:00;;;;;;;;;5.50;4.50;;;;;25.43;45.10;100400.59;5077046;28;45608;-46
2021/07/24 08:05:25;;;;;;;;;8.25;6.00;;;;;25.45;45.15;100398.66;5078469;28;45497;-43
2021/07/24 08:07:51;;;;;;;;;6.00;5.50;;;;;25.46;45.64;100397.69;5078062;28;45316;-47
2021/07/24 08:10:16;;;;;;;;;5.00;5.00;;;;;25.46;45.49;100400.34;5078137;28;45417;-47
2021/07/24 08:12:42;;;;;;;;;6.25;5.50;;;;;25.49;45.48;100394.78;5078261;28;45478;-48
2021/07/24 08:15:08;;;;;;;;;5.75;5.00;;;;;25.50;45.36;100398.28;5077854;27;46058;-47
2021/07/24 08:17:33;;;;;;;;;7.00;5.50;;;;;25.49;44.97;100392.16;5078012;27;45816;-44
2021/07/24 08:19:59;;;;;;;;;7.00;6.25;;;;;25.50;44.97;100396.47;5078404;28;45316;-45
2021/07/24 08:22:24;;;;;;;;;6.50;6.00;;;;;25.50;44.99;100393.81;5078229;27;45361;-45
2021/07/24 08:24:49;;;;;;;;;6.00;4.50;;;;;25.52;45.13;100399.00;5077867;28;45398;-45
2021/07/24 08:27:15;;;;;;;;;6.25;5.75;;;;;25.53;45.52;100396.19;5077589;28;45374;-44
2021/07/24 08:29:40;;;;;;;;;7.75;7.25;;;;;25.54;45.13;100386.44;5077831;28;45293;-43
2021/07/24 08:32:09;;;;;;;;;8.75;6.50;;;;;25.56;45.69;100384.50;5077896;27;45645;-49
2021/07/24 08:34:35;;;;;;;;;6.75;6.00;;;;;25.57;44.88;100391.50;5077642;28;46175;-54
2021/07/24 08:37:00;;;;;;;;;6.50;5.00;;;;;25.58;44.76;100378.09;5077951;28;45400;-44
2021/07/24 08:39:25;;;;;;;;;5.50;5.50;;;;;25.62;45.36;100383.97;5077648;27;45392;-45
2021/07/24 08:41:51;;;;;;;;;5.75;5.00;;;;;25.63;45.27;100383.84;5077795;27;45375;-49
2021/07/24 08:44:16;;;;;;;;;7.00;5.25;;;;;25.66;44.47;100373.94;5077454;28;46205;-44
2021/07/24 08:46:41;;;;;;;;;6.00;4.00;;;;;25.68;44.76;100377.31;5074902;28;46038;-50
2021/07/24 08:49:07;;;;;;;;;4.25;3.75;;;;;25.71;44.53;100371.75;5076745;28;45522;-48
2021/07/24 08:51:36;;;;;;;;;6.50;3.50;;;;;25.74;44.48;100372.31;5077623;28;45315;-46
2021/07/24 08:54:01;;;;;;;;;6.25;3.00;;;;;25.78;44.78;100375.56;5077266;28;45959;-53
2021/07/24 08:56:31;;;;;;;;;5.00;5.00;;;;;25.83;44.57;100372.50;5077092;28;45320;-50
2021/07/24 08:58:59;;;;;;;;;7.75;6.00;;;;;25.86;44.70;100374.91;5076748;27;45380;-50
2021/07/24 09:01:27;;;;;;;;;6.00;6.00;;;;;25.90;44.79;100385.13;5077435;28;45238;-48
2021/07/24 09:03:55;;;;;;;;;6.75;6.25;;;;;25.96;44.18;100388.25;5076900;28;45555;-51
2021/07/24 09:06:22;;;;;;;;;6.00;6.00;;;;;25.99;44.05;100385.31;5076972;27;45798;-49
2021/07/24 09:08:56;;;;;;;;;5.75;5.25;;;;;26.00;44.69;100382.53;5076706;28;45331;-50
2021/07/24 09:11:21;;;;;;;;;10.00;6.00;;;;;26.04;43.86;100394.56;5077069;27;45605;-46
2021/07/24 09:13:47;;;;;;;;;10.00;7.25;;;;;26.08;43.83;100389.81;5076817;28;46928;-50
2021/07/24 09:16:13;;;;;;;;;7.00;5.25;;;;;26.10;44.07;100398.53;5077126;28;45459;-50
2021/07/24 09:18:39;;;;;;;;;4.75;4.75;;;;;26.12;44.17;100380.66;5076657;28;45399;-53
2021/07/24 09:21:05;;;;;;;;;5.50;4.50;;;;;26.15;44.30;100387.50;5077177;28;45387;-49
2021/07/24 09:23:35;;;;;;;;;5.00;4.00;;;;;26.18;44.17;100388.06;5077055;28;46181;-49
2021/07/24 09:26:04;;;;;;;;;4.25;4.25;;;;;26.21;43.74;100389.66;5058905;28;45457;-51
2021/07/24 09:28:30;;;;;;;;;5.00;5.00;;;;;26.22;43.73;100386.03;5076934;28;45333;-45
2021/07/24 09:30:55;;;;;;;;;6.50;4.50;;;;;26.23;44.17;100380.56;5075583;28;45247;-48
2021/07/24 09:33:22;;;;;;;;;6.00;6.00;;;;;26.26;43.62;100386.59;5076497;28;47505;-48
2021/07/24 09:35:51;;;;;;;;;5.00;5.00;;;;;26.27;44.02;100383.78;5076667;28;45449;-49
2021/07/24 09:38:32;;;;;;;;;5.50;5.00;;;;;26.29;43.80;100387.16;5076536;28;45381;-46
2021/07/24 09:41:01;;;;;;;;;4.50;3.00;;;;;26.29;43.91;100379.19;5077302;27;45252;-45
2021/07/24 09:43:32;;;;;;;;;4.25;4.00;;;;;26.31;43.90;100382.56;5076193;28;46201;-46
2021/07/24 09:46:10;;;;;;;;;8.00;6.50;;;;;26.34;44.12;100381.44;5058768;28;45647;-46
2021/07/24 09:48:35;;;;;;;;;5.25;5.25;;;;;26.35;43.34;100394.56;5076837;28;45347;-48
2021/07/24 09:51:01;;;;;;;;;6.75;4.00;;;;;26.36;43.73;100398.09;5076921;27;45386;-47
2021/07/24 09:53:43;;;;;;;;;4.50;4.25;;;;;26.39;43.77;100397.84;5076628;28;46176;-45
2021/07/24 09:56:19;;;;;;;;;4.50;4.50;;;;;26.39;43.05;100401.31;5076659;28;45215;-49
2021/07/24 09:58:46;;;;;;;;;6.25;6.00;;;;;26.40;43.25;100407.50;5076791;28;45401;-50
2021/07/24 10:01:19;;;;;;;;;5.00;5.00;;;;;26.42;43.37;100400.19;5076803;28;45481;-47
2021/07/24 10:03:49;;;;;;;;;5.00;4.50;;;;;26.42;43.76;100402.84;5076193;28;46263;-52
2021/07/24 10:06:18;;;;;;;;;8.25;6.25;;;;;26.44;43.54;100400.09;5074839;28;46213;-51
2021/07/24 10:08:47;;;;;;;;;6.25;5.25;;;;;26.44;43.37;100406.22;5076614;28;45374;-48
2021/07/24 10:11:12;;;;;;;;;5.00;4.50;;;;;26.46;43.43;100408.75;5076611;28;45491;-48
2021/07/24 10:13:39;;;;;;;;;6.75;4.00;;;;;26.45;43.65;100410.56;5077719;27;45461;-45
2021/07/24 10:16:05;;;;;;;;;5.75;5.00;;;;;26.45;43.53;100402.59;5079947;28;45764;-46
2021/07/24 10:18:30;;;;;;;;;5.50;5.00;;;;;26.47;43.18;100410.41;5080400;28;45373;-49
2021/07/24 10:20:56;;;;;;;;;4.25;4.25;;;;;26.46;43.60;100409.59;5080254;28;45769;-51
2021/07/24 10:23:23;;;;;;;;;5.00;4.25;;;;;26.47;42.98;100405.97;5079921;28;45270;-47
2021/07/24 10:25:50;;;;;;;;;5.75;3.50;;;;;26.47;43.20;100411.28;5079849;27;45811;-49
2021/07/24 10:28:23;;;;;;;;;4.75;4.00;;;;;26.49;43.12;100408.47;5079917;27;45404;-51
2021/07/24 10:30:52;;;;;;;;;4.25;4.00;;;;;26.49;43.24;100398.69;5061795;28;45289;-51
2021/07/24 10:33:19;;;;;;;;;4.50;4.50;;;;;26.50;42.85;100402.19;5079631;28;46414;-48
2021/07/24 10:35:44;;;;;;;;;6.00;4.00;;;;;26.51;43.13;100407.34;5079216;28;45411;-47
2021/07/24 10:38:32;;;;;;;;;8.00;7.25;;;;;26.53;43.35;100391.28;5080052;28;45316;-46
2021/07/24 10:41:22;;;;;;;;;7.00;7.00;;;;;26.52;43.43;100390.44;5079863;28;45475;-48
2021/07/24 10:44:09;;;;;;;;;5.00;5.00;;;;;26.54;42.83;100392.97;5079491;27;46439;-48
2021/07/24 10:46:44;;;;;;;;;3.50;3.50;;;;;26.56;42.78;100393.69;5079856;27;45595;-49
2021/07/24 10:49:21;;;;;;;;;5.50;5.00;;;;;26.56;42.85;100383.06;5061271;28;45337;-47
2021/07/24 10:51:54;;;;;;;;;5.00;5.00;;;;;26.58;43.10;100380.25;5079657;28;45159;-51
2021/07/24 10:54:20;;;;;;;;;4.00;4.00;;;;;26.58;42.77;100375.75;5079289;28;46078;-48
2021/07/24 10:56:45;;;;;;;;;3.00;3.00;;;;;26.59;43.13;100372.13;5061157;28;45283;-48
2021/07/24 10:59:13;;;;;;;;;7.25;4.25;;;;;26.60;42.63;100375.66;5079625;28;45224;-46
2021/07/24 11:01:52;;;;;;;;;6.00;3.75;;;;;26.61;42.53;100377.34;5061285;27;45260;-46
2021/07/24 11:04:36;;;;;;;;;6.75;3.75;;;;;26.60;42.80;100373.81;5079317;28;46167;-48
2021/07/24 11:07:22;;;;;;;;;3.00;3.00;;;;;26.60;42.27;100367.69;5079415;27;45445;-47
2021/07/24 11:10:08;;;;;;;;;3.00;3.00;;;;;26.60;42.50;100373.00;5068652;28;45355;-48
2021/07/24 11:12:37;;;;;;;;;8.00;5.75;;;;;26.60;42.34;100373.00;5079376;27;45295;-49
2021/07/24 11:15:04;;;;;;;;;4.75;4.00;;;;;26.60;42.36;100373.00;5079320;27;46099;-48
2021/07/24 11:17:29;;;;;;;;;6.25;3.75;;;;;26.59;42.27;100376.63;5060772;28;45918;-47
2021/07/24 11:20:01;;;;;;;;;4.25;4.25;;;;;26.59;42.43;100381.94;5076989;28;46108;-47
2021/07/24 11:22:27;;;;;;;;;4.00;4.00;;;;;26.60;42.41;100392.41;5077853;28;45541;-48